createdAt,value
2023-02-03T16:54:49.630Z,7.50
2023-02-03T16:57:16.944Z,7.52
2023-02-03T16:59:44.178Z,7.45
2023-02-03T17:02:11.591Z,7.42
2023-02-03T17:04:40.122Z,7.31
2023-02-03T17:07:07.776Z,7.38
2023-02-03T17:09:34.954Z,6.86
2023-02-03T17:12:04.052Z,6.88
2023-02-03T17:14:31.717Z,7.03
2023-02-03T17:16:58.975Z,6.94
2023-02-03T17:19:26.455Z,6.93
2023-02-03T17:21:53.793Z,6.94
2023-02-03T17:24:20.973Z,7.02
2023-02-03T17:26:48.232Z,6.88
2023-02-03T17:29:17.295Z,6.79
2023-02-03T17:31:44.635Z,6.43
2023-02-03T17:34:14.586Z,6.56
2023-02-03T17:36:41.932Z,6.71
2023-02-03T17:55:33.131Z,6.28
2023-02-03T17:58:00.854Z,6.24
2023-02-03T18:00:31.242Z,6.40
2023-02-03T18:02:59.299Z,6.58
2023-02-03T18:05:27.000Z,6.52
2023-02-03T18:07:54.345Z,6.70
2023-02-03T18:10:21.523Z,6.55
2023-02-03T18:12:48.746Z,6.21
2023-02-03T18:15:16.026Z,6.10
2023-02-03T18:17:44.727Z,6.15
2023-02-03T18:20:12.987Z,6.23
2023-02-03T18:22:40.181Z,6.28
2023-02-03T18:25:07.881Z,6.39
2023-02-03T18:27:35.754Z,6.28
2023-02-03T18:30:03.140Z,6.56
2023-02-03T18:32:30.437Z,6.57
2023-02-03T18:35:00.367Z,6.62
2023-02-03T18:37:28.156Z,6.32
2023-02-03T18:39:55.438Z,6.56
2023-02-03T18:42:22.606Z,6.35
2023-02-03T18:44:49.806Z,6.55
2023-02-03T18:47:17.228Z,6.46
2023-02-03T18:49:44.429Z,6.35
2023-02-03T18:52:13.093Z,6.46
2023-02-03T18:54:40.290Z,6.24
2023-02-03T18:57:07.555Z,6.29
2023-02-03T18:59:34.790Z,6.20
2023-02-03T19:02:02.133Z,6.25
2023-02-03T19:04:29.248Z,6.28
2023-02-03T19:06:56.473Z,6.29
2023-02-03T19:09:25.093Z,6.20
2023-02-03T19:11:52.407Z,5.99
2023-02-03T19:14:19.590Z,5.94
2023-02-03T19:16:46.823Z,5.91
2023-02-03T19:19:13.999Z,5.79
2023-02-03T19:21:41.111Z,5.80
2023-02-03T19:24:08.490Z,5.68
2023-02-03T19:26:37.158Z,5.85
2023-02-03T19:29:04.340Z,5.84
2023-02-03T19:31:31.589Z,5.68
2023-02-03T19:33:58.900Z,5.72
2023-02-03T19:36:26.847Z,5.50
2023-02-03T19:38:54.098Z,5.58
2023-02-03T19:41:21.378Z,5.55
2023-02-03T19:43:50.212Z,5.41
2023-02-03T19:46:17.594Z,5.34
